CYAZ/YAZ METAR and TAF weather

Enter ICAO airport designator
Station Type Date Time Source
CYAZ METAR 2022/01/29 01:00 UTC NOAA

CYAZ 290100Z 13010KT 15SM OVC035 07/04 A3024 RMK SC8 LAST STFD OBS/NXT 291500UTC SLP241


Station Type Date Time Source
CYAZ Decoded METAR 2022/01/29 01:00 UTC NOAA

Tofino Airport, Canada (CYAZ) 49-05N 125-46W
Jan 28, 2022 - 08:00 PM EST / 2022.01.29 0100 UTC
Wind: from the SE (130 degrees) at 12 MPH (10 KT):0
Visibility: 15 mile(s):0
Sky conditions: overcast
Temperature: 44 F (7 C)
Dew Point: 39 F (4 C)
Relative Humidity: 81%
Pressure (altimeter): 30.24 in. Hg (1024 hPa)
ob: CYAZ 290100Z 13010KT 15SM OVC035 07/04 A3024 RMK SC8 LAST STFD OBS/NXT 291500UTC SLP241
cycle: 1

Station Type Date Time Source
CYAZ TAF 2022/01/28 19:00 UTC NOAA

TAF CYAZ 281840Z 2819/2901 12005KT P6SM SCT020
TEMPO 2819/2821 BKN020
FM282100 12010KT P6SM SCT012 BKN025
TEMPO 2821/2901 3SM -DZ BR BKN008 OVC020
RMK NXT FCST BY 291700Z

Example: see airport list